createdAt,value
2017-09-16T00:00:04.038Z,73.80
2017-09-16T00:02:30.505Z,73.20
2017-09-16T00:04:57.764Z,71.90
2017-09-16T00:07:24.238Z,71.80
2017-09-16T00:09:51.445Z,69.40
2017-09-16T00:12:17.886Z,69.40
2017-09-16T00:14:45.101Z,70.20
2017-09-16T00:17:11.521Z,70.10
2017-09-16T00:19:37.963Z,70.10
2017-09-16T00:22:04.389Z,70.10
2017-09-16T00:24:30.856Z,70.70
2017-09-16T00:26:57.304Z,71.90
2017-09-16T00:29:23.694Z,71.90
2017-09-16T00:31:50.093Z,73.10
2017-09-16T00:34:17.303Z,73.30
2017-09-16T00:36:43.764Z,73.20
2017-09-16T00:39:10.193Z,73.40
2017-09-16T00:41:37.438Z,72.50
2017-09-16T00:44:04.658Z,72.60
2017-09-16T00:46:31.122Z,72.60
2017-09-16T00:48:57.544Z,71.80
2017-09-16T00:51:24.065Z,71.20
2017-09-16T00:53:50.536Z,70.70
2017-09-16T00:56:17.744Z,71.20
2017-09-16T00:58:44.198Z,71.00
2017-09-16T01:01:10.646Z,71.40
2017-09-16T01:03:37.878Z,72.60
2017-09-16T01:06:04.317Z,72.60
2017-09-16T01:08:30.755Z,72.50
2017-09-16T01:10:57.965Z,71.40
2017-09-16T01:13:24.429Z,71.40
2017-09-16T01:15:50.871Z,72.10
2017-09-16T01:18:17.309Z,73.20
2017-09-16T01:20:44.560Z,74.80
2017-09-16T01:23:11.797Z,75.50
2017-09-16T01:25:38.269Z,76.10
2017-09-16T01:28:04.765Z,75.90
2017-09-16T01:30:31.253Z,76.00
2017-09-16T01:32:57.761Z,75.40
2017-09-16T01:35:24.225Z,74.20
2017-09-16T01:37:52.291Z,73.30
2017-09-16T01:40:18.793Z,73.30
2017-09-16T01:42:45.266Z,72.90
2017-09-16T01:45:11.698Z,73.70
2017-09-16T01:47:38.841Z,74.70
2017-09-16T01:50:05.313Z,74.60
2017-09-16T01:52:32.469Z,74.50
2017-09-16T01:54:58.887Z,74.50
2017-09-16T01:57:25.630Z,74.70
2017-09-16T01:59:52.045Z,75.00
2017-09-16T02:02:18.527Z,74.40
2017-09-16T02:04:44.985Z,72.80
2017-09-16T02:07:11.444Z,71.20
2017-09-16T02:09:37.878Z,71.00
2017-09-16T02:12:04.302Z,70.70
2017-09-16T02:14:30.763Z,69.90
2017-09-16T02:16:57.209Z,70.90
2017-09-16T02:19:23.637Z,70.30
2017-09-16T02:21:50.168Z,71.00
2017-09-16T02:24:16.622Z,71.30
2017-09-16T02:26:43.062Z,70.70
2017-09-16T02:29:09.496Z,69.60
2017-09-16T02:31:35.890Z,69.50
2017-09-16T02:34:02.355Z,69.00
2017-09-16T02:36:28.780Z,68.60
2017-09-16T02:38:55.224Z,68.50
2017-09-16T02:41:21.675Z,68.60
2017-09-16T02:43:48.845Z,68.60
2017-09-16T02:46:15.273Z,68.50
2017-09-16T02:48:42.478Z,68.70
2017-09-16T02:51:08.902Z,68.60
2017-09-16T02:53:35.296Z,67.90
2017-09-16T02:56:01.727Z,68.60
2017-09-16T02:58:28.186Z,69.10
2017-09-16T03:00:54.635Z,68.90
2017-09-16T03:03:21.069Z,69.10
2017-09-16T03:05:47.471Z,68.70
2017-09-16T03:08:13.924Z,69.90
2017-09-16T03:10:40.330Z,70.40
2017-09-16T03:13:06.746Z,71.20
2017-09-16T03:15:33.934Z,74.80
2017-09-16T03:18:00.408Z,74.90
2017-09-16T03:20:26.861Z,75.40
2017-09-16T03:22:54.057Z,74.80
2017-09-16T03:25:20.491Z,74.70
2017-09-16T03:27:46.925Z,73.90
2017-09-16T03:30:13.357Z,74.10
2017-09-16T03:32:39.773Z,72.60
2017-09-16T03:35:06.243Z,72.10
2017-09-16T03:37:33.426Z,71.90
2017-09-16T03:39:59.888Z,71.90
2017-09-16T03:42:26.322Z,71.40
2017-09-16T03:44:52.738Z,71.70
2017-09-16T03:47:19.197Z,71.60
2017-09-16T03:49:45.626Z,71.50
2017-09-16T03:52:12.042Z,72.00
2017-09-16T03:54:38.476Z,74.20
2017-09-16T03:57:04.910Z,75.50
2017-09-16T03:59:31.373Z,76.60
2017-09-16T04:02:09.873Z,78.00
2017-09-16T04:04:36.262Z,77.70
2017-09-16T04:07:03.977Z,77.60
2017-09-16T04:09:30.397Z,77.60
2017-09-16T04:11:56.805Z,77.40
2017-09-16T04:14:23.247Z,77.10
2017-09-16T04:16:50.387Z,77.60
2017-09-16T04:19:16.870Z,77.50
2017-09-16T04:21:43.319Z,76.70
2017-09-16T04:24:09.725Z,75.70
2017-09-16T04:26:36.150Z,74.80
2017-09-16T04:29:02.615Z,74.70
2017-09-16T04:31:29.026Z,74.90
2017-09-16T04:33:55.490Z,74.60
2017-09-16T04:36:21.925Z,74.80
2017-09-16T04:38:48.358Z,74.20
2017-09-16T04:41:15.589Z,73.70
2017-09-16T04:43:42.005Z,73.60
2017-09-16T04:46:09.516Z,75.80
2017-09-16T04:48:36.682Z,77.50
2017-09-16T04:51:03.139Z,77.50
2017-09-16T04:53:29.590Z,77.60
2017-09-16T04:55:56.047Z,77.10
2017-09-16T04:58:22.452Z,77.20
2017-09-16T05:00:48.888Z,77.40
2017-09-16T05:03:15.311Z,77.30
2017-09-16T05:05:41.701Z,77.40
2017-09-16T05:08:08.901Z,79.00
2017-09-16T05:10:35.301Z,79.10
2017-09-16T05:13:01.721Z,79.40
2017-09-16T05:15:28.186Z,78.80
2017-09-16T05:17:54.596Z,78.30
2017-09-16T05:20:21.032Z,77.60
2017-09-16T05:22:47.478Z,76.70
2017-09-16T05:25:13.878Z,76.40
2017-09-16T05:27:41.040Z,75.30
2017-09-16T05:30:08.212Z,74.60
2017-09-16T05:32:34.654Z,74.60
2017-09-16T05:35:01.082Z,73.90
2017-09-16T05:37:27.501Z,73.00
2017-09-16T05:39:53.901Z,72.70
2017-09-16T05:42:21.073Z,71.60
2017-09-16T05:44:47.537Z,71.60
2017-09-16T05:47:13.948Z,71.30
2017-09-16T05:49:40.424Z,71.70
2017-09-16T05:52:06.837Z,71.50
2017-09-16T05:54:33.296Z,72.60
2017-09-16T05:56:59.749Z,71.70
2017-09-16T05:59:26.901Z,72.60
2017-09-16T06:01:53.394Z,72.60
2017-09-16T06:04:19.839Z,73.00
2017-09-16T06:06:47.074Z,72.20
2017-09-16T06:09:13.550Z,72.20
2017-09-16T06:11:40.774Z,70.50
2017-09-16T06:14:07.256Z,70.50
2017-09-16T06:16:33.731Z,70.90
2017-09-16T06:19:00.206Z,70.00
2017-09-16T06:21:27.404Z,69.50
2017-09-16T06:23:53.825Z,69.50
2017-09-16T06:26:20.232Z,69.70
2017-09-16T06:28:47.414Z,69.00
2017-09-16T06:31:14.561Z,68.90
2017-09-16T06:33:41.006Z,69.30
2017-09-16T06:36:07.469Z,69.00
2017-09-16T06:38:34.658Z,69.70
2017-09-16T06:41:01.112Z,69.70
2017-09-16T06:43:27.537Z,69.90
2017-09-16T06:45:53.972Z,69.90
2017-09-16T06:48:20.389Z,69.10
2017-09-16T06:50:47.551Z,68.40
2017-09-16T06:53:13.962Z,68.40
2017-09-16T06:55:41.134Z,68.20
2017-09-16T06:58:07.552Z,68.20
2017-09-16T07:00:34.046Z,68.00
2017-09-16T07:03:00.498Z,67.80
2017-09-16T07:05:26.893Z,66.80
2017-09-16T07:07:53.328Z,67.80
2017-09-16T07:10:19.781Z,65.50
2017-09-16T07:12:46.217Z,64.50
2017-09-16T07:15:12.693Z,64.90
2017-09-16T07:17:39.188Z,64.20
2017-09-16T07:20:05.608Z,63.30
2017-09-16T07:22:32.079Z,62.40
2017-09-16T07:24:58.510Z,63.40
2017-09-16T07:27:25.749Z,62.00
2017-09-16T07:29:52.165Z,62.00
2017-09-16T07:32:18.606Z,61.50
2017-09-16T07:34:45.082Z,60.80
2017-09-16T07:37:11.578Z,58.50
2017-09-16T07:39:38.003Z,59.00
2017-09-16T07:42:04.463Z,58.60
2017-09-16T07:44:30.894Z,59.70
2017-09-16T07:46:58.076Z,58.20
2017-09-16T07:49:24.541Z,58.20
2017-09-16T07:51:50.970Z,56.10
2017-09-16T07:54:18.169Z,54.70
2017-09-16T07:56:44.649Z,54.70
2017-09-16T07:59:11.096Z,56.10
2017-09-16T08:01:37.494Z,56.00
2017-09-16T08:04:03.952Z,55.80
2017-09-16T08:06:31.354Z,56.10
2017-09-16T08:08:57.774Z,54.30
2017-09-16T08:11:24.965Z,55.10
2017-09-16T08:13:51.411Z,55.20
2017-09-16T08:16:17.885Z,54.30
2017-09-16T08:18:44.318Z,54.10
2017-09-16T08:21:11.466Z,54.20
2017-09-16T08:23:37.904Z,54.20
2017-09-16T08:26:05.092Z,53.50
2017-09-16T08:28:31.554Z,53.40
2017-09-16T08:30:57.969Z,53.30
2017-09-16T08:33:24.385Z,52.90
2017-09-16T08:35:50.873Z,53.90
2017-09-16T08:38:17.266Z,53.70
2017-09-16T08:40:43.725Z,53.00
2017-09-16T08:43:11.697Z,54.00
2017-09-16T08:45:38.102Z,53.90
2017-09-16T08:48:04.545Z,53.80
2017-09-16T08:50:30.992Z,53.30
2017-09-16T08:52:57.490Z,52.90
2017-09-16T08:55:23.912Z,52.90
2017-09-16T08:57:50.349Z,53.10
2017-09-16T09:00:16.858Z,53.20
2017-09-16T09:02:43.326Z,52.10
2017-09-16T09:05:09.774Z,50.00
2017-09-16T09:07:36.178Z,48.30
2017-09-16T09:10:02.625Z,46.20
2017-09-16T09:12:29.054Z,45.30
2017-09-16T09:14:55.533Z,43.80
2017-09-16T09:17:22.001Z,41.60
2017-09-16T09:19:48.446Z,40.20
2017-09-16T09:22:14.870Z,40.00
2017-09-16T09:24:41.313Z,37.90
2017-09-16T09:27:07.745Z,35.80
2017-09-16T09:29:34.210Z,35.00
2017-09-16T09:32:01.401Z,33.60
2017-09-16T09:34:28.635Z,36.10
2017-09-16T09:36:55.049Z,36.10
2017-09-16T09:39:21.462Z,35.30
2017-09-16T09:41:47.992Z,36.30
2017-09-16T09:44:14.444Z,37.20
2017-09-16T09:46:40.886Z,36.10
2017-09-16T09:49:08.117Z,35.50
2017-09-16T09:51:34.542Z,35.50
2017-09-16T09:54:01.754Z,34.70
2017-09-16T09:56:28.950Z,34.60
2017-09-16T09:58:55.429Z,34.50
2017-09-16T10:01:22.641Z,34.40
2017-09-16T10:03:49.111Z,34.20
2017-09-16T10:06:15.581Z,34.80
2017-09-16T10:08:42.080Z,35.20
2017-09-16T10:11:08.554Z,34.50
2017-09-16T10:13:35.042Z,36.00
2017-09-16T10:16:01.501Z,36.50
2017-09-16T10:18:28.658Z,37.70
2017-09-16T10:20:55.088Z,37.60
2017-09-16T10:23:21.585Z,38.50
2017-09-16T10:25:47.994Z,38.90
2017-09-16T10:28:14.447Z,40.40
2017-09-16T10:30:40.880Z,41.10
2017-09-16T10:33:07.395Z,41.70
2017-09-16T10:35:33.849Z,41.00
2017-09-16T10:38:00.268Z,41.30
2017-09-16T10:40:26.749Z,41.10
2017-09-16T10:42:53.197Z,42.00
2017-09-16T10:45:19.649Z,42.40
2017-09-16T10:47:46.098Z,43.10
2017-09-16T10:50:12.517Z,44.00
2017-09-16T10:52:38.986Z,45.60
2017-09-16T10:55:05.398Z,45.50
2017-09-16T10:57:31.878Z,45.60
2017-09-16T10:59:58.317Z,45.70
2017-09-16T11:02:24.836Z,45.30
2017-09-16T11:04:51.310Z,45.10
2017-09-16T11:07:17.760Z,45.30
2017-09-16T11:09:44.196Z,46.00
2017-09-16T11:12:10.713Z,45.90
2017-09-16T11:14:37.137Z,45.90
2017-09-16T11:17:03.569Z,47.70
2017-09-16T11:19:30.029Z,47.10
2017-09-16T11:21:56.529Z,47.20
2017-09-16T11:24:22.999Z,47.50
2017-09-16T11:26:49.438Z,48.20
2017-09-16T11:29:15.905Z,48.90
2017-09-16T11:31:43.049Z,51.30
2017-09-16T11:34:09.594Z,51.20
2017-09-16T11:36:36.760Z,51.90
2017-09-16T11:39:03.998Z,51.60
2017-09-16T11:41:31.193Z,51.80
2017-09-16T11:43:57.634Z,51.70
2017-09-16T11:46:24.103Z,51.10
2017-09-16T11:48:51.262Z,53.20
2017-09-16T11:51:18.429Z,53.70
2017-09-16T11:53:45.602Z,52.80
2017-09-16T11:56:12.130Z,52.80
2017-09-16T11:58:38.546Z,56.10
2017-09-16T12:01:04.980Z,54.30
2017-09-16T12:03:31.468Z,55.00
2017-09-16T12:05:57.920Z,55.40
2017-09-16T12:08:24.374Z,57.80
2017-09-16T12:10:50.797Z,57.90
2017-09-16T12:13:17.244Z,57.20
2017-09-16T12:15:44.401Z,62.10
2017-09-16T12:18:10.836Z,62.10
2017-09-16T12:20:37.258Z,66.50
2017-09-16T12:23:03.693Z,67.90
2017-09-16T12:25:30.168Z,66.00
2017-09-16T12:27:56.682Z,66.80
2017-09-16T12:30:23.138Z,65.10
2017-09-16T12:32:49.574Z,67.10
2017-09-16T12:35:16.050Z,69.70
2017-09-16T12:37:43.319Z,71.90
2017-09-16T12:40:09.837Z,71.90
2017-09-16T12:42:36.277Z,75.50
2017-09-16T12:45:02.722Z,73.60
2017-09-16T12:47:29.270Z,69.30
2017-09-16T12:49:55.744Z,72.60
2017-09-16T12:52:22.215Z,73.10
2017-09-16T12:54:48.663Z,71.40
2017-09-16T12:57:15.099Z,69.90
2017-09-16T12:59:41.533Z,68.60
2017-09-16T13:02:08.067Z,67.40
2017-09-16T13:04:35.297Z,66.20
2017-09-16T13:07:01.715Z,66.20
2017-09-16T13:09:28.148Z,67.20
2017-09-16T13:11:54.638Z,66.40
2017-09-16T13:14:21.076Z,66.10
2017-09-16T13:16:47.498Z,67.90
2017-09-16T13:19:13.934Z,65.90
2017-09-16T13:21:40.393Z,65.90
2017-09-16T13:24:06.885Z,70.80
2017-09-16T13:26:33.327Z,65.40
2017-09-16T13:28:59.788Z,66.80
2017-09-16T13:31:26.202Z,67.20
2017-09-16T13:33:52.660Z,65.00
2017-09-16T13:36:19.131Z,63.00
2017-09-16T13:38:45.591Z,63.80
2017-09-16T13:41:12.035Z,66.70
2017-09-16T13:43:38.486Z,67.20
2017-09-16T13:46:04.948Z,67.50
2017-09-16T13:48:32.121Z,64.80
2017-09-16T13:50:58.587Z,64.80
2017-09-16T13:53:24.985Z,65.40
2017-09-16T13:55:51.414Z,63.50
2017-09-16T13:58:18.126Z,65.80
2017-09-16T14:00:45.311Z,66.70
2017-09-16T14:03:11.757Z,66.70
2017-09-16T14:05:38.225Z,67.20
2017-09-16T14:08:05.421Z,66.70
2017-09-16T14:10:31.898Z,66.70
2017-09-16T14:12:58.299Z,67.90
2017-09-16T14:15:24.738Z,67.70
2017-09-16T14:17:51.170Z,68.60
2017-09-16T14:20:17.599Z,69.20
2017-09-16T14:22:44.025Z,68.90
2017-09-16T14:25:10.509Z,67.80
2017-09-16T14:27:36.925Z,65.90
2017-09-16T14:30:03.422Z,67.70
2017-09-16T14:32:29.845Z,67.80
2017-09-16T14:34:57.042Z,65.70
2017-09-16T14:37:23.457Z,65.80
2017-09-16T14:39:49.877Z,66.80
2017-09-16T14:42:16.397Z,66.80
2017-09-16T14:44:42.850Z,67.30
2017-09-16T14:47:09.277Z,67.60
2017-09-16T14:49:35.738Z,70.10
2017-09-16T14:52:02.163Z,69.80
2017-09-16T14:54:28.632Z,69.80
2017-09-16T14:56:55.070Z,69.70
2017-09-16T14:59:21.509Z,70.10
2017-09-16T15:01:48.728Z,67.10
2017-09-16T15:04:15.198Z,66.30
2017-09-16T15:06:42.376Z,65.20
2017-09-16T15:09:08.834Z,65.20
2017-09-16T15:11:35.255Z,66.00
2017-09-16T15:14:01.706Z,65.50
2017-09-16T15:16:28.240Z,64.60
2017-09-16T15:18:54.701Z,64.70
2017-09-16T15:21:21.198Z,64.40
2017-09-16T15:23:47.673Z,62.70
2017-09-16T15:26:14.105Z,63.60
2017-09-16T15:28:40.581Z,64.40
2017-09-16T15:31:07.064Z,62.80
2017-09-16T15:33:33.591Z,64.10
2017-09-16T15:36:00.030Z,63.40
2017-09-16T15:38:26.534Z,63.00
2017-09-16T15:40:53.081Z,63.30
2017-09-16T15:43:19.497Z,62.90
2017-09-16T15:45:46.025Z,61.50
2017-09-16T15:48:12.449Z,61.30
2017-09-16T15:50:38.909Z,61.20
2017-09-16T15:53:05.394Z,61.30
2017-09-16T15:55:32.586Z,61.00
2017-09-16T15:57:59.028Z,61.00
2017-09-16T16:00:25.534Z,61.60
2017-09-16T16:02:52.010Z,60.90
2017-09-16T16:05:18.417Z,61.30
2017-09-16T16:07:44.848Z,60.10
2017-09-16T16:10:11.305Z,61.30
2017-09-16T16:12:37.762Z,61.60
2017-09-16T16:15:04.197Z,62.40
2017-09-16T16:17:30.667Z,62.50
2017-09-16T16:19:57.155Z,62.60
2017-09-16T16:22:23.606Z,61.60
2017-09-16T16:24:50.825Z,62.80
2017-09-16T16:27:17.305Z,62.80
2017-09-16T16:29:44.514Z,61.10
2017-09-16T16:32:11.017Z,61.10
2017-09-16T16:34:37.438Z,60.70
2017-09-16T16:37:03.854Z,60.90
2017-09-16T16:39:31.063Z,61.80
2017-09-16T16:41:57.490Z,61.60
2017-09-16T16:44:23.986Z,61.80
2017-09-16T16:46:50.409Z,61.30
2017-09-16T16:49:16.924Z,61.30
2017-09-16T16:51:44.073Z,61.00
2017-09-16T16:54:11.298Z,61.80
2017-09-16T16:56:37.730Z,61.80
2017-09-16T16:59:04.144Z,61.30
2017-09-16T17:01:30.634Z,61.20
2017-09-16T17:03:57.785Z,62.60
2017-09-16T17:06:24.939Z,63.70
2017-09-16T17:08:52.118Z,64.40
2017-09-16T17:11:18.554Z,64.40
2017-09-16T17:13:45.848Z,65.20
2017-09-16T17:16:12.360Z,65.10
2017-09-16T17:18:38.880Z,66.40
2017-09-16T17:21:05.333Z,66.00
2017-09-16T17:23:31.809Z,66.40
2017-09-16T17:25:59.064Z,66.10
2017-09-16T17:28:25.527Z,66.20
2017-09-16T17:30:51.983Z,66.30
2017-09-16T17:33:18.410Z,66.40
2017-09-16T17:35:44.854Z,66.60
2017-09-16T17:38:12.046Z,67.80
2017-09-16T17:40:38.468Z,67.80
2017-09-16T17:43:05.744Z,69.50
2017-09-16T17:45:32.182Z,69.40
2017-09-16T17:47:58.619Z,70.50
2017-09-16T17:50:25.114Z,71.10
2017-09-16T17:52:51.568Z,71.20
2017-09-16T17:55:18.038Z,70.70
2017-09-16T17:57:44.508Z,70.50
2017-09-16T18:00:10.945Z,70.90
2017-09-16T18:02:38.150Z,72.00
2017-09-16T18:05:04.610Z,72.10
2017-09-16T18:07:31.018Z,73.00
2017-09-16T18:09:57.449Z,73.70
2017-09-16T18:12:23.935Z,74.90
2017-09-16T18:14:51.146Z,74.90
2017-09-16T18:17:17.611Z,74.90
2017-09-16T18:19:44.019Z,74.30
2017-09-16T18:22:10.465Z,74.50
2017-09-16T18:24:36.926Z,74.50
2017-09-16T18:27:04.093Z,74.30
2017-09-16T18:29:30.537Z,73.50
2017-09-16T18:31:56.945Z,73.90
2017-09-16T18:34:24.131Z,74.10
2017-09-16T18:36:51.485Z,74.10
2017-09-16T18:39:18.060Z,74.00
2017-09-16T18:41:44.504Z,73.40
2017-09-16T18:44:11.693Z,73.70
2017-09-16T18:46:38.145Z,73.70
2017-09-16T18:49:04.608Z,74.30
2017-09-16T18:51:31.043Z,74.20
2017-09-16T18:53:57.555Z,73.30
2017-09-16T18:56:24.021Z,72.80
2017-09-16T18:58:51.216Z,73.60
2017-09-16T19:01:17.726Z,73.60
2017-09-16T19:03:44.171Z,74.20
2017-09-16T19:06:10.619Z,74.30
2017-09-16T19:08:37.123Z,74.40
2017-09-16T19:11:03.581Z,74.30
2017-09-16T19:13:30.577Z,73.80
2017-09-16T19:15:57.017Z,73.20
2017-09-16T19:18:23.533Z,72.80
2017-09-16T19:20:50.993Z,73.00
2017-09-16T19:23:17.476Z,73.30
2017-09-16T19:25:43.929Z,73.40
2017-09-16T19:28:10.446Z,73.20
2017-09-16T19:30:36.868Z,72.40
2017-09-16T19:33:03.326Z,73.50
2017-09-16T19:35:29.815Z,74.00
2017-09-16T19:37:56.989Z,74.10
2017-09-16T19:40:23.409Z,74.00
2017-09-16T19:42:49.869Z,73.60
2017-09-16T19:45:16.299Z,73.00
2017-09-16T19:47:43.729Z,73.40
2017-09-16T19:50:10.217Z,73.60
2017-09-16T19:52:36.679Z,73.50
2017-09-16T19:55:03.921Z,73.10
2017-09-16T19:57:30.398Z,73.00
2017-09-16T19:59:56.869Z,72.90
2017-09-16T20:02:24.131Z,72.60
2017-09-16T20:04:50.644Z,72.60
2017-09-16T20:07:17.080Z,72.20
2017-09-16T20:09:43.506Z,71.90
2017-09-16T20:12:09.962Z,72.20
2017-09-16T20:14:36.378Z,72.00
2017-09-16T20:17:02.849Z,72.90
2017-09-16T20:19:30.033Z,72.90
2017-09-16T20:21:56.472Z,72.90
2017-09-16T20:24:22.941Z,72.70
2017-09-16T20:26:49.385Z,73.00
2017-09-16T20:29:15.807Z,74.30
2017-09-16T20:31:42.281Z,74.60
2017-09-16T20:34:08.729Z,74.40
2017-09-16T20:36:35.199Z,74.30
2017-09-16T20:39:01.787Z,73.70
2017-09-16T20:41:28.299Z,74.10
2017-09-16T20:43:54.745Z,74.50
2017-09-16T20:46:21.189Z,75.00
2017-09-16T20:48:47.681Z,74.00
2017-09-16T20:51:14.137Z,73.80
2017-09-16T20:53:40.582Z,73.60
2017-09-16T20:56:07.006Z,73.50
2017-09-16T20:58:33.443Z,73.30
2017-09-16T21:01:01.484Z,72.80
2017-09-16T21:03:27.910Z,72.80
2017-09-16T21:05:54.449Z,73.20
2017-09-16T21:08:20.949Z,73.20
2017-09-16T21:10:48.265Z,73.40
2017-09-16T21:13:14.773Z,73.50
2017-09-16T21:15:41.206Z,73.80
2017-09-16T21:18:07.642Z,73.80
2017-09-16T21:20:34.118Z,73.60
2017-09-16T21:23:00.568Z,73.80
2017-09-16T21:25:27.009Z,74.00
2017-09-16T21:27:53.493Z,74.30
2017-09-16T21:30:19.914Z,74.50
2017-09-16T21:32:46.373Z,75.00
2017-09-16T21:35:12.902Z,75.30
2017-09-16T21:37:40.073Z,76.20
2017-09-16T21:40:06.532Z,76.30
2017-09-16T21:42:32.983Z,76.30
2017-09-16T21:44:59.424Z,76.50
2017-09-16T21:47:25.916Z,76.90
2017-09-16T21:49:52.330Z,77.60
2017-09-16T21:52:19.511Z,78.60
2017-09-16T21:54:45.959Z,78.50
2017-09-16T21:57:12.433Z,78.40
2017-09-16T21:59:39.588Z,77.10
2017-09-16T22:02:06.814Z,77.10
2017-09-16T22:04:33.269Z,76.60
2017-09-16T22:06:59.684Z,75.80
2017-09-16T22:09:26.922Z,75.10
2017-09-16T22:11:53.358Z,75.10
2017-09-16T22:14:19.781Z,74.10
2017-09-16T22:16:46.221Z,73.20
2017-09-16T22:19:12.635Z,73.40
2017-09-16T22:21:39.086Z,73.50
2017-09-16T22:24:05.526Z,74.00
2017-09-16T22:26:31.981Z,74.10
2017-09-16T22:28:58.402Z,74.00
2017-09-16T22:31:24.941Z,74.20
2017-09-16T22:33:51.420Z,74.30
2017-09-16T22:36:17.834Z,74.30
2017-09-16T22:38:44.285Z,75.00
2017-09-16T22:41:10.745Z,75.70
2017-09-16T22:43:37.182Z,76.30
2017-09-16T22:46:03.605Z,76.70
2017-09-16T22:48:30.046Z,76.60
2017-09-16T22:50:56.449Z,76.80
2017-09-16T22:53:22.947Z,77.10
2017-09-16T22:55:49.426Z,77.20
2017-09-16T22:58:15.845Z,77.50
2017-09-16T23:00:42.376Z,77.20
2017-09-16T23:03:08.845Z,77.60
2017-09-16T23:05:35.272Z,78.00
2017-09-16T23:08:01.770Z,78.30
2017-09-16T23:10:28.202Z,78.50
2017-09-16T23:12:55.360Z,77.40
2017-09-16T23:15:21.843Z,77.40
2017-09-16T23:17:49.021Z,76.80
2017-09-16T23:20:15.462Z,76.70
2017-09-16T23:22:42.649Z,75.20
2017-09-16T23:25:09.078Z,75.20
2017-09-16T23:27:35.633Z,74.70
2017-09-16T23:30:02.079Z,74.30
2017-09-16T23:32:29.261Z,74.50
2017-09-16T23:34:55.749Z,75.00
2017-09-16T23:37:22.138Z,74.40
2017-09-16T23:39:48.605Z,74.60
2017-09-16T23:42:15.051Z,75.30
2017-09-16T23:44:41.458Z,75.90
2017-09-16T23:47:07.948Z,76.70
2017-09-16T23:49:34.382Z,77.10
2017-09-16T23:52:00.861Z,77.70
2017-09-16T23:54:27.444Z,77.10
2017-09-16T23:56:53.893Z,77.80
2017-09-16T23:59:20.359Z,78.00
